createdAt,value
2018-09-19T00:00:58.433Z,85.19
2018-09-19T00:01:58.356Z,85.57
2018-09-19T00:02:58.285Z,86.63
2018-09-19T00:03:58.213Z,86.54
2018-09-19T00:04:58.154Z,86.73
2018-09-19T00:05:58.070Z,86.44
2018-09-19T00:06:58.000Z,86.35
2018-09-19T00:07:57.926Z,86.63
2018-09-19T00:08:57.855Z,87.02
2018-09-19T00:09:57.782Z,87.12
2018-09-19T00:10:57.708Z,86.92
2018-09-19T00:11:57.646Z,86.44
2018-09-19T00:12:57.566Z,86.82
2018-09-19T00:13:57.492Z,86.82
2018-09-19T00:14:57.423Z,87.50
2018-09-19T00:15:57.351Z,86.82
2018-09-19T00:16:57.278Z,87.70
2018-09-19T00:17:57.204Z,87.46
2018-09-19T00:18:57.136Z,87.46
2018-09-19T00:19:57.083Z,87.65
2018-09-19T00:20:56.986Z,87.65
2018-09-19T00:21:56.914Z,88.13
2018-09-19T00:22:56.845Z,88.13
2018-09-19T00:23:56.807Z,88.23
2018-09-19T00:24:56.697Z,88.23
2018-09-19T00:25:56.626Z,88.23
2018-09-19T00:26:56.557Z,88.42
2018-09-19T00:27:56.479Z,88.13
2018-09-19T00:28:56.412Z,88.42
2018-09-19T00:29:56.340Z,88.42
2018-09-19T00:30:56.268Z,88.04
2018-09-19T00:31:56.192Z,88.81
2018-09-19T00:32:56.123Z,88.04
2018-09-19T00:33:56.067Z,89.39
2018-09-19T00:34:55.976Z,89.00
2018-09-19T00:35:55.931Z,89.96
2018-09-19T00:36:55.830Z,89.77
2018-09-19T00:37:55.756Z,89.48
2018-09-19T00:38:55.691Z,89.09
2018-09-19T00:39:55.630Z,89.29
2018-09-19T00:40:55.545Z,89.43
2018-09-19T00:41:55.474Z,89.53
2018-09-19T00:42:55.396Z,90.11
2018-09-19T00:43:55.327Z,90.01
2018-09-19T00:44:55.255Z,90.20
2018-09-19T00:45:55.178Z,89.43
2018-09-19T00:46:55.110Z,89.82
2018-09-19T00:47:55.040Z,89.92
2018-09-19T00:48:54.963Z,89.53
2018-09-19T00:49:54.886Z,90.20
2018-09-19T00:50:54.815Z,90.50
2018-09-19T00:51:54.745Z,90.30
2018-09-19T00:52:54.672Z,90.78
2018-09-19T00:53:54.626Z,91.17
2018-09-19T00:54:54.524Z,91.89
2018-09-19T00:55:54.452Z,92.03
2018-09-19T00:56:54.390Z,92.52
2018-09-19T00:57:54.312Z,91.65
2018-09-19T00:58:54.235Z,93.09
2018-09-19T00:59:54.161Z,93.09
2018-09-19T01:00:54.090Z,92.52
2018-09-19T01:01:54.071Z,92.61
2018-09-19T01:02:53.958Z,93.29
2018-09-19T01:03:53.872Z,93.29
2018-09-19T01:04:53.806Z,92.90
2018-09-19T01:05:53.749Z,93.77
2018-09-19T01:06:53.654Z,93.96
2018-09-19T01:07:53.581Z,94.15
2018-09-19T01:08:53.510Z,93.87
2018-09-19T01:09:53.435Z,94.01
2018-09-19T01:10:53.364Z,93.72
2018-09-19T01:11:53.295Z,94.20
2018-09-19T01:12:53.218Z,94.01
2018-09-19T01:13:53.142Z,93.53
2018-09-19T01:14:53.077Z,93.91
2018-09-19T01:15:52.998Z,94.40
2018-09-19T01:16:52.927Z,93.91
2018-09-19T01:17:52.851Z,93.72
2018-09-19T01:18:52.787Z,94.40
2018-09-19T01:19:52.707Z,94.87
2018-09-19T01:20:52.634Z,94.68
2018-09-19T01:21:52.561Z,94.59
2018-09-19T01:22:52.503Z,94.78
2018-09-19T01:23:52.417Z,94.30
2018-09-19T01:24:52.343Z,94.78
2018-09-19T01:25:52.271Z,94.78
2018-09-19T01:26:52.197Z,94.59
2018-09-19T01:27:52.129Z,94.68
2018-09-19T01:28:52.052Z,94.59
2018-09-19T01:29:51.979Z,95.07
2018-09-19T01:30:51.908Z,94.68
2018-09-19T01:31:51.833Z,94.87
2018-09-19T01:32:51.759Z,94.97
2018-09-19T01:33:51.687Z,95.07
2018-09-19T01:34:51.618Z,94.78
2018-09-19T01:35:51.540Z,94.97
2018-09-19T01:36:51.469Z,95.84
2018-09-19T01:37:51.397Z,95.26
2018-09-19T01:38:51.324Z,95.79
2018-09-19T01:39:51.249Z,95.26
2018-09-19T01:40:51.174Z,95.84
2018-09-19T01:41:51.102Z,95.65
2018-09-19T01:42:51.031Z,95.17
2018-09-19T01:43:50.958Z,95.74
2018-09-19T01:44:50.883Z,95.94
2018-09-19T01:45:50.818Z,95.55
2018-09-19T01:46:50.747Z,95.65
2018-09-19T01:47:50.663Z,95.79
2018-09-19T01:48:50.591Z,95.79
2018-09-19T01:49:50.528Z,95.79
2018-09-19T01:50:50.452Z,95.60
2018-09-19T01:51:50.377Z,96.08
2018-09-19T01:52:50.308Z,95.94
2018-09-19T01:53:50.225Z,95.60
2018-09-19T01:54:50.158Z,95.98
2018-09-19T01:55:50.079Z,95.65
2018-09-19T01:56:50.007Z,96.03
2018-09-19T01:57:49.936Z,95.45
2018-09-19T01:58:49.860Z,96.17
2018-09-19T01:59:49.797Z,95.45
2018-09-19T02:00:49.718Z,96.03
2018-09-19T02:01:49.641Z,96.32
2018-09-19T02:02:49.570Z,96.17
2018-09-19T02:03:49.495Z,95.98
2018-09-19T02:04:49.432Z,96.08
2018-09-19T02:05:49.353Z,96.37
2018-09-19T02:06:49.281Z,96.27
2018-09-19T02:07:49.202Z,96.37
2018-09-19T02:08:49.132Z,95.89
2018-09-19T02:09:49.059Z,95.98
2018-09-19T02:10:48.986Z,95.79
2018-09-19T02:11:48.912Z,96.94
2018-09-19T02:12:48.843Z,96.37
2018-09-19T02:13:48.769Z,96.27
2018-09-19T02:14:48.693Z,96.37
2018-09-19T02:15:48.616Z,96.08
2018-09-19T02:16:48.544Z,96.27
2018-09-19T02:17:48.476Z,96.47
2018-09-19T02:18:48.399Z,96.85
2018-09-19T02:19:48.326Z,96.94
2018-09-19T02:20:48.253Z,96.17
2018-09-19T02:21:48.179Z,96.17
2018-09-19T02:22:48.106Z,96.75
2018-09-19T02:23:48.036Z,96.47
2018-09-19T02:24:47.960Z,96.56
2018-09-19T02:25:47.888Z,96.47
2018-09-19T02:26:47.814Z,96.75
2018-09-19T02:27:47.741Z,96.66
2018-09-19T02:28:47.669Z,96.75
2018-09-19T02:29:47.597Z,96.56
2018-09-19T02:30:47.520Z,96.94
2018-09-19T02:31:47.446Z,96.66
2018-09-19T02:32:47.374Z,96.94
2018-09-19T02:33:47.307Z,96.27
2018-09-19T02:34:47.229Z,96.66
2018-09-19T02:35:47.155Z,96.66
2018-09-19T02:36:47.089Z,96.47
2018-09-19T02:37:47.011Z,96.37
2018-09-19T02:38:46.935Z,96.56
2018-09-19T02:39:46.859Z,96.94
2018-09-19T02:40:46.786Z,96.47
2018-09-19T02:41:46.716Z,96.51
2018-09-19T02:42:46.649Z,96.94
2018-09-19T02:43:46.568Z,97.04
2018-09-19T02:44:46.497Z,96.94
2018-09-19T02:45:46.424Z,96.56
2018-09-19T02:46:46.350Z,97.42
2018-09-19T02:47:46.276Z,97.28
2018-09-19T02:48:46.202Z,97.19
2018-09-19T02:49:46.129Z,97.24
2018-09-19T02:50:46.056Z,97.33
2018-09-19T02:51:45.986Z,97.24
2018-09-19T02:52:45.909Z,97.04
2018-09-19T02:53:45.837Z,97.14
2018-09-19T02:54:45.761Z,97.14
2018-09-19T02:55:45.688Z,96.94
2018-09-19T02:56:45.614Z,97.04
2018-09-19T02:57:45.547Z,96.90
2018-09-19T02:58:45.469Z,97.19
2018-09-19T02:59:45.394Z,97.33
2018-09-19T03:00:45.323Z,96.85
2018-09-19T03:01:45.253Z,97.09
2018-09-19T03:02:45.175Z,96.90
2018-09-19T03:03:45.100Z,97.28
2018-09-19T03:04:45.097Z,97.47
2018-09-19T03:05:44.962Z,97.47
2018-09-19T03:06:44.881Z,97.28
2018-09-19T03:07:44.806Z,97.38
2018-09-19T03:08:44.734Z,97.19
2018-09-19T03:09:44.660Z,97.76
2018-09-19T03:10:44.587Z,97.57
2018-09-19T03:11:44.513Z,97.09
2018-09-19T03:12:44.451Z,97.71
2018-09-19T03:13:44.377Z,97.24
2018-09-19T03:14:44.293Z,98.00
2018-09-19T03:15:44.224Z,97.52
2018-09-19T03:16:44.147Z,97.81
2018-09-19T03:17:44.244Z,97.33
2018-09-19T03:18:43.998Z,96.66
2018-09-19T03:19:43.924Z,97.14
2018-09-19T03:20:43.851Z,97.04
2018-09-19T03:21:43.779Z,96.37
2018-09-19T03:22:43.706Z,96.13
2018-09-19T03:23:43.632Z,96.22
2018-09-19T03:24:43.572Z,95.94
2018-09-19T03:25:43.486Z,95.75
2018-09-19T03:26:43.413Z,94.40
2018-09-19T03:27:43.333Z,95.36
2018-09-19T03:28:43.271Z,94.98
2018-09-19T03:29:43.187Z,95.17
2018-09-19T03:30:43.124Z,94.98
2018-09-19T03:31:43.038Z,95.75
2018-09-19T03:32:42.966Z,95.36
2018-09-19T03:33:42.894Z,95.75
2018-09-19T03:34:42.821Z,96.51
2018-09-19T03:35:42.749Z,96.42
2018-09-19T03:36:42.674Z,96.70
2018-09-19T03:37:42.606Z,96.80
2018-09-19T03:38:42.525Z,96.70
2018-09-19T03:39:42.453Z,97.09
2018-09-19T03:40:42.384Z,96.80
2018-09-19T03:41:42.299Z,96.03
2018-09-19T03:42:42.227Z,95.26
2018-09-19T03:43:42.153Z,96.51
2018-09-19T03:44:42.078Z,96.51
2018-09-19T03:45:42.004Z,96.03
2018-09-19T03:46:41.928Z,96.99
2018-09-19T03:47:41.858Z,96.61
2018-09-19T03:48:41.783Z,96.17
2018-09-19T03:49:41.708Z,96.42
2018-09-19T03:50:41.632Z,96.51
2018-09-19T03:51:41.558Z,97.28
2018-09-19T03:52:41.487Z,96.17
2018-09-19T03:53:41.422Z,96.32
2018-09-19T03:54:41.359Z,96.42
2018-09-19T03:55:41.263Z,97.19
2018-09-19T03:56:41.188Z,96.51
2018-09-19T03:57:41.114Z,96.42
2018-09-19T03:58:41.053Z,95.65
2018-09-19T03:59:40.966Z,96.13
2018-09-19T04:00:40.896Z,96.42
2018-09-19T04:01:40.823Z,96.13
2018-09-19T04:02:40.743Z,97.19
2018-09-19T04:03:40.686Z,97.19
2018-09-19T04:04:40.596Z,96.22
2018-09-19T04:05:40.523Z,96.51
2018-09-19T04:06:40.449Z,96.13
2018-09-19T04:07:40.373Z,95.65
2018-09-19T04:08:40.299Z,94.31
2018-09-19T04:09:40.226Z,94.69
2018-09-19T04:10:40.170Z,95.03
2018-09-19T04:11:40.079Z,93.59
2018-09-19T04:12:40.006Z,93.30
2018-09-19T04:13:39.939Z,92.63
2018-09-19T04:14:39.871Z,92.91
2018-09-19T04:15:39.805Z,91.66
2018-09-19T04:16:39.708Z,92.24
2018-09-19T04:17:39.643Z,91.96
2018-09-19T04:18:39.559Z,91.38
2018-09-19T04:19:39.492Z,91.38
2018-09-19T04:20:39.411Z,91.09
2018-09-19T04:21:39.335Z,91.19
2018-09-19T04:22:39.259Z,90.70
2018-09-19T04:23:39.184Z,89.84
2018-09-19T04:24:39.114Z,91.47
2018-09-19T04:25:39.047Z,91.28
2018-09-19T04:26:38.963Z,91.47
2018-09-19T04:27:38.888Z,90.70
2018-09-19T04:28:38.814Z,91.57
2018-09-19T04:29:38.738Z,91.47
2018-09-19T04:30:38.665Z,91.09
2018-09-19T04:31:38.588Z,90.32
2018-09-19T04:32:38.517Z,89.94
2018-09-19T04:33:38.442Z,91.47
2018-09-19T04:34:38.368Z,90.42
2018-09-19T04:35:38.294Z,91.66
2018-09-19T04:36:38.215Z,92.05
2018-09-19T04:37:38.157Z,90.90
2018-09-19T04:38:38.072Z,92.05
2018-09-19T04:39:37.990Z,90.80
2018-09-19T04:40:37.917Z,91.57
2018-09-19T04:41:37.845Z,91.76
2018-09-19T04:42:37.781Z,91.38
2018-09-19T04:43:37.699Z,91.96
2018-09-19T04:44:37.623Z,91.47
2018-09-19T04:45:37.549Z,91.96
2018-09-19T04:46:37.471Z,91.96
2018-09-19T04:47:37.410Z,92.05
2018-09-19T04:48:37.333Z,93.30
2018-09-19T04:49:37.248Z,93.68
2018-09-19T04:50:37.176Z,93.68
2018-09-19T04:51:37.207Z,93.68
2018-09-19T04:52:37.026Z,92.72
2018-09-19T04:53:36.968Z,92.91
2018-09-19T04:54:36.876Z,93.68
2018-09-19T04:55:36.804Z,93.39
2018-09-19T04:56:36.735Z,92.05
2018-09-19T04:57:36.651Z,93.39
2018-09-19T04:58:36.579Z,92.63
2018-09-19T04:59:36.504Z,92.63
2018-09-19T05:00:36.430Z,92.33
2018-09-19T05:01:36.353Z,93.49
2018-09-19T05:02:36.294Z,93.10
2018-09-19T05:03:36.210Z,93.20
2018-09-19T05:04:36.135Z,93.68
2018-09-19T05:05:36.129Z,92.33
2018-09-19T05:06:35.986Z,92.72
2018-09-19T05:07:35.913Z,92.72
2018-09-19T05:08:35.833Z,92.82
2018-09-19T05:09:35.762Z,92.53
2018-09-19T05:10:35.688Z,93.39
2018-09-19T05:11:35.612Z,92.72
2018-09-19T05:12:35.535Z,92.91
2018-09-19T05:13:35.461Z,92.63
2018-09-19T05:14:35.387Z,92.91
2018-09-19T05:15:35.315Z,92.53
2018-09-19T05:16:35.238Z,92.53
2018-09-19T05:17:35.163Z,93.30
2018-09-19T05:18:35.088Z,92.14
2018-09-19T05:19:35.015Z,91.76
2018-09-19T05:20:34.943Z,91.96
2018-09-19T05:21:34.870Z,91.66
2018-09-19T05:22:34.814Z,91.57
2018-09-19T05:23:34.716Z,90.42
2018-09-19T05:24:34.641Z,90.22
2018-09-19T05:25:34.572Z,90.70
2018-09-19T05:26:34.495Z,89.17
2018-09-19T05:27:42.077Z,89.99
2018-09-19T05:29:38.810Z,90.22
2018-09-19T05:30:38.650Z,88.59
2018-09-19T05:32:42.963Z,90.03
2018-09-19T05:33:42.901Z,90.13
2018-09-19T05:35:47.237Z,90.32
2018-09-19T05:36:47.110Z,92.82
2018-09-19T05:38:40.361Z,93.49
2018-09-19T05:39:40.277Z,96.47
2018-09-19T05:41:44.638Z,96.47
2018-09-19T05:42:44.514Z,95.79
2018-09-19T05:43:44.439Z,96.94
2018-09-19T05:44:44.363Z,95.41
2018-09-19T05:45:44.295Z,94.35
2018-09-19T05:46:44.220Z,94.16
2018-09-19T05:47:44.147Z,93.30
2018-09-19T05:48:44.067Z,93.30
2018-09-19T05:49:43.993Z,92.63
2018-09-19T05:50:43.917Z,92.05
2018-09-19T05:51:43.844Z,92.53
2018-09-19T05:52:43.768Z,92.91
2018-09-19T05:53:43.696Z,92.53
2018-09-19T05:54:43.623Z,93.39
2018-09-19T05:55:43.544Z,92.91
2018-09-19T05:56:43.469Z,95.07
2018-09-19T05:57:43.409Z,93.92
2018-09-19T05:58:43.321Z,93.92
2018-09-19T05:59:43.247Z,91.61
2018-09-19T06:00:43.173Z,95.17
2018-09-19T06:01:43.098Z,94.40
2018-09-19T06:02:43.075Z,94.88
2018-09-19T06:03:42.956Z,93.92
2018-09-19T06:04:42.887Z,94.98
2018-09-19T06:05:42.803Z,93.54
2018-09-19T06:06:42.729Z,95.26
2018-09-19T06:07:42.651Z,93.73
2018-09-19T06:08:42.582Z,94.21
2018-09-19T06:09:42.508Z,94.98
2018-09-19T06:10:42.428Z,95.55
2018-09-19T06:11:42.359Z,94.78
2018-09-19T06:12:42.339Z,94.11
2018-09-19T06:13:42.210Z,93.15
2018-09-19T06:14:42.135Z,92.48
2018-09-19T06:15:42.063Z,92.10
2018-09-19T06:16:41.989Z,91.71
2018-09-19T06:17:41.911Z,91.71
2018-09-19T06:18:41.836Z,92.10
2018-09-19T06:19:41.766Z,92.10
2018-09-19T06:20:41.686Z,93.25
2018-09-19T06:21:41.618Z,94.40
2018-09-19T06:22:41.544Z,93.54
2018-09-19T06:23:41.466Z,93.68
2018-09-19T06:24:41.391Z,93.34
2018-09-19T06:25:41.315Z,93.01
2018-09-19T06:26:41.249Z,93.39
2018-09-19T06:27:41.175Z,94.45
2018-09-19T06:28:41.122Z,95.21
2018-09-19T06:29:41.021Z,95.70
2018-09-19T06:30:40.949Z,94.93
2018-09-19T06:31:40.876Z,95.12
2018-09-19T06:32:40.802Z,95.60
2018-09-19T06:33:40.746Z,96.56
2018-09-19T06:34:40.648Z,95.50
2018-09-19T06:35:40.585Z,96.94
2018-09-19T06:36:40.505Z,96.08
2018-09-19T06:37:40.429Z,95.50
2018-09-19T06:38:40.364Z,96.37
2018-09-19T06:39:40.284Z,96.08
2018-09-19T06:40:40.391Z,96.27
2018-09-19T06:41:40.137Z,95.70
2018-09-19T06:42:40.060Z,96.37
2018-09-19T06:43:39.986Z,94.54
2018-09-19T06:44:39.910Z,94.83
2018-09-19T06:45:39.909Z,93.49
2018-09-19T06:46:39.767Z,93.39
2018-09-19T06:47:39.691Z,93.39
2018-09-19T06:48:39.616Z,94.06
2018-09-19T06:49:39.605Z,94.35
2018-09-19T06:50:39.468Z,94.93
2018-09-19T06:51:39.441Z,95.45
2018-09-19T06:52:39.385Z,95.17
2018-09-19T06:53:39.251Z,95.84
2018-09-19T06:54:39.176Z,96.32
2018-09-19T06:55:39.104Z,96.32
2018-09-19T06:56:39.028Z,96.32
2018-09-19T06:57:38.962Z,95.55
2018-09-19T06:58:38.899Z,96.70
2018-09-19T06:59:38.820Z,96.80
2018-09-19T07:00:38.825Z,95.94
2018-09-19T07:01:38.663Z,96.90
2018-09-19T07:02:38.586Z,96.13
2018-09-19T07:03:38.515Z,96.32
2018-09-19T07:04:38.444Z,96.13
2018-09-19T07:05:38.370Z,98.05
2018-09-19T07:06:38.292Z,96.70
2018-09-19T07:07:38.218Z,99.21
2018-09-19T07:08:38.149Z,98.82
2018-09-19T07:09:38.073Z,98.53
2018-09-19T07:10:38.028Z,97.57
2018-09-19T07:11:37.931Z,97.86
2018-09-19T07:12:37.851Z,96.90
2018-09-19T07:13:37.778Z,97.09
2018-09-19T07:14:37.708Z,96.80
2018-09-19T07:15:37.637Z,97.52
2018-09-19T07:16:37.571Z,97.38
2018-09-19T07:17:37.492Z,97.81
2018-09-19T07:18:37.417Z,97.71
2018-09-19T07:19:37.344Z,99.44
2018-09-19T07:20:37.271Z,98.68
2018-09-19T07:21:37.192Z,98.49
2018-09-19T07:22:37.123Z,99.44
2018-09-19T07:23:37.104Z,99.06
2018-09-19T07:24:36.979Z,99.44
2018-09-19T07:25:36.905Z,98.77
2018-09-19T07:26:36.827Z,99.06
2018-09-19T07:27:36.754Z,97.91
2018-09-19T07:28:36.684Z,98.10
2018-09-19T07:29:36.606Z,98.29
2018-09-19T07:30:36.532Z,98.77
2018-09-19T07:31:36.462Z,99.26
2018-09-19T07:32:36.393Z,99.06
2018-09-19T07:33:36.316Z,98.29
2018-09-19T07:34:36.293Z,97.71
2018-09-19T07:35:36.171Z,97.52
2018-09-19T07:36:36.099Z,97.62
2018-09-19T07:37:36.023Z,97.52
2018-09-19T07:38:35.950Z,97.81
2018-09-19T07:39:35.876Z,97.52
2018-09-19T07:40:35.806Z,98.19
2018-09-19T07:41:35.735Z,97.62
2018-09-19T07:42:35.659Z,98.19
2018-09-19T07:43:35.589Z,97.62
2018-09-19T07:44:35.512Z,97.52
2018-09-19T07:45:35.459Z,99.26
2018-09-19T07:46:35.381Z,97.52
2018-09-19T07:47:35.303Z,97.81
2018-09-19T07:48:35.225Z,97.14
2018-09-19T07:49:35.154Z,97.71
2018-09-19T07:50:35.077Z,96.75
2018-09-19T07:51:34.999Z,97.14
2018-09-19T07:52:34.935Z,97.14
2018-09-19T07:53:34.853Z,97.62
2018-09-19T07:54:34.803Z,97.33
2018-09-19T07:55:34.714Z,96.85
2018-09-19T07:56:34.635Z,97.38
2018-09-19T07:57:34.565Z,97.38
2018-09-19T07:58:34.496Z,96.70
2018-09-19T07:59:34.416Z,96.99
2018-09-19T08:00:34.409Z,97.28
2018-09-19T08:01:34.271Z,96.22
2018-09-19T08:02:34.209Z,97.96
2018-09-19T08:03:34.131Z,97.86
2018-09-19T08:04:34.050Z,97.47
2018-09-19T08:05:33.981Z,98.14
2018-09-19T08:06:33.908Z,97.86
2018-09-19T08:07:33.849Z,99.69
2018-09-19T08:08:33.760Z,99.99
2018-09-19T08:09:33.693Z,99.99
2018-09-19T08:10:33.613Z,99.99
2018-09-19T08:11:33.544Z,99.99
2018-09-19T08:12:33.476Z,99.99
2018-09-19T08:13:33.396Z,99.99
2018-09-19T08:14:33.327Z,99.99
2018-09-19T08:15:33.255Z,99.99
2018-09-19T08:16:33.191Z,99.99
2018-09-19T08:17:33.113Z,99.99
2018-09-19T08:18:33.058Z,99.99
2018-09-19T08:19:32.989Z,99.99
2018-09-19T08:20:32.891Z,99.99
2018-09-19T08:21:32.834Z,99.99
2018-09-19T08:22:32.834Z,99.99
2018-09-19T08:23:32.671Z,99.99
2018-09-19T08:24:32.598Z,99.30
2018-09-19T08:25:32.531Z,99.01
2018-09-19T08:26:32.451Z,98.92
2018-09-19T08:27:32.383Z,98.82
2018-09-19T08:28:32.317Z,99.99
2018-09-19T08:29:32.238Z,99.99
2018-09-19T08:30:32.162Z,99.99
2018-09-19T08:31:32.091Z,99.99
2018-09-19T08:32:32.034Z,99.78
2018-09-19T08:33:31.948Z,99.16
2018-09-19T08:34:31.875Z,99.26
2018-09-19T08:35:31.799Z,99.35
2018-09-19T08:36:31.739Z,99.74
2018-09-19T08:37:31.668Z,99.93
2018-09-19T08:38:31.580Z,99.64
2018-09-19T08:39:31.576Z,99.74
2018-09-19T08:40:31.504Z,99.99
2018-09-19T08:41:31.366Z,99.99
2018-09-19T08:42:31.290Z,98.97
2018-09-19T08:43:31.218Z,99.99
2018-09-19T08:44:31.145Z,99.99
2018-09-19T08:45:31.073Z,99.74
2018-09-19T08:46:31.021Z,99.99
2018-09-19T08:47:30.927Z,99.99
2018-09-19T08:48:30.860Z,99.64
2018-09-19T08:49:30.795Z,99.99
2018-09-19T08:50:30.793Z,99.99
2018-09-19T08:51:30.641Z,99.99
2018-09-19T08:52:30.563Z,99.99
2018-09-19T08:53:30.492Z,99.99
2018-09-19T08:54:30.417Z,99.99
2018-09-19T08:55:30.348Z,99.99
2018-09-19T08:56:30.288Z,99.99
2018-09-19T08:57:30.204Z,99.99
2018-09-19T08:58:30.131Z,99.99
2018-09-19T08:59:30.056Z,99.99
2018-09-19T09:00:29.986Z,99.99
2018-09-19T09:01:29.916Z,99.99
2018-09-19T09:02:29.842Z,99.99
2018-09-19T09:03:29.767Z,99.99
2018-09-19T09:04:29.701Z,99.99
2018-09-19T09:05:29.727Z,99.99
2018-09-19T09:06:29.548Z,99.99
2018-09-19T09:07:29.489Z,99.99
2018-09-19T09:08:29.418Z,99.99
2018-09-19T09:09:29.331Z,99.99
2018-09-19T09:10:29.259Z,99.99
2018-09-19T09:11:29.186Z,99.99
2018-09-19T09:12:29.158Z,99.99
2018-09-19T09:13:29.052Z,99.99
2018-09-19T09:14:28.972Z,99.99
2018-09-19T09:15:28.896Z,99.99
2018-09-19T09:16:28.828Z,99.99
2018-09-19T09:17:28.756Z,99.99
2018-09-19T09:18:28.698Z,99.99
2018-09-19T09:19:28.781Z,99.99
2018-09-19T09:20:28.581Z,99.99
2018-09-19T09:21:28.470Z,99.99
2018-09-19T09:22:28.401Z,99.79
2018-09-19T09:23:28.321Z,99.99
2018-09-19T09:24:28.248Z,99.79
2018-09-19T09:25:28.181Z,99.99
2018-09-19T09:26:28.112Z,99.99
2018-09-19T09:27:28.074Z,99.99
2018-09-19T09:28:27.959Z,99.99
2018-09-19T09:29:27.889Z,99.99
2018-09-19T09:30:27.823Z,99.99
2018-09-19T09:31:27.746Z,99.99
2018-09-19T09:32:27.689Z,99.99
2018-09-19T09:33:27.598Z,99.99
2018-09-19T09:34:27.526Z,99.99
2018-09-19T09:35:27.459Z,99.99
2018-09-19T09:36:27.383Z,99.99
2018-09-19T09:37:27.313Z,99.99
2018-09-19T09:38:27.246Z,99.99
2018-09-19T09:39:27.171Z,99.99
2018-09-19T09:40:27.126Z,99.99
2018-09-19T09:41:27.026Z,99.99
2018-09-19T09:42:26.956Z,99.99
2018-09-19T09:43:26.907Z,99.99
2018-09-19T09:44:26.816Z,99.99
2018-09-19T09:45:26.746Z,99.99
2018-09-19T09:46:26.668Z,99.99
2018-09-19T09:47:26.594Z,99.99
2018-09-19T09:48:26.544Z,99.74
2018-09-19T09:49:26.464Z,99.99
2018-09-19T09:50:26.452Z,99.93
2018-09-19T09:51:26.318Z,99.74
2018-09-19T09:52:26.241Z,99.79
2018-09-19T09:53:26.205Z,99.79
2018-09-19T09:54:26.097Z,99.99
2018-09-19T09:55:26.027Z,99.99
2018-09-19T09:56:25.955Z,99.99
2018-09-19T09:57:25.907Z,99.79
2018-09-19T09:58:25.816Z,99.99
2018-09-19T09:59:25.743Z,99.99
2018-09-19T10:00:25.672Z,99.60
2018-09-19T10:01:25.603Z,99.21
2018-09-19T10:02:25.559Z,99.79
2018-09-19T10:03:25.460Z,99.40
2018-09-19T10:04:25.397Z,99.88
2018-09-19T10:05:25.318Z,99.50
2018-09-19T10:06:25.316Z,99.21
2018-09-19T10:07:25.178Z,99.40
2018-09-19T10:08:25.107Z,99.50
2018-09-19T10:09:25.041Z,99.69
2018-09-19T10:10:24.967Z,99.60
2018-09-19T10:11:24.894Z,99.79
2018-09-19T10:12:24.824Z,99.21
2018-09-19T10:13:24.813Z,99.60
2018-09-19T10:14:24.685Z,99.40
2018-09-19T10:15:24.614Z,99.99
2018-09-19T10:16:24.539Z,99.40
2018-09-19T10:17:24.494Z,99.98
2018-09-19T10:18:24.400Z,99.79
2018-09-19T10:19:24.328Z,99.79
2018-09-19T10:20:24.258Z,99.11
2018-09-19T10:21:24.192Z,99.60
2018-09-19T10:22:24.114Z,99.60
2018-09-19T10:23:24.044Z,99.60
2018-09-19T10:24:23.973Z,99.88
2018-09-19T10:25:23.903Z,99.21
2018-09-19T10:26:23.844Z,99.40
2018-09-19T10:27:23.763Z,99.69
2018-09-19T10:28:23.697Z,99.02
2018-09-19T10:29:23.631Z,99.45
2018-09-19T10:30:23.598Z,99.45
2018-09-19T10:31:23.496Z,98.78
2018-09-19T10:32:23.409Z,98.30
2018-09-19T10:33:23.350Z,98.78
2018-09-19T10:34:23.267Z,98.63
2018-09-19T10:35:23.208Z,98.83
2018-09-19T10:36:23.125Z,98.54
2018-09-19T10:37:23.066Z,98.68
2018-09-19T10:38:22.987Z,97.42
2018-09-19T10:39:22.914Z,97.33
2018-09-19T10:40:22.844Z,97.14
2018-09-19T10:41:22.783Z,97.23
2018-09-19T10:42:22.709Z,97.62
2018-09-19T10:43:22.636Z,96.46
2018-09-19T10:44:22.569Z,96.51
2018-09-19T10:45:22.500Z,96.89
2018-09-19T10:46:22.432Z,95.44
2018-09-19T10:47:22.358Z,95.25
2018-09-19T10:48:22.293Z,95.15
2018-09-19T10:49:22.229Z,95.25
2018-09-19T10:50:22.155Z,94.76
2018-09-19T10:51:22.080Z,95.44
2018-09-19T10:52:22.012Z,95.15
2018-09-19T10:53:21.941Z,95.20
2018-09-19T10:54:21.877Z,94.81
2018-09-19T10:55:21.800Z,94.71
2018-09-19T10:56:21.737Z,93.65
2018-09-19T10:57:21.666Z,93.36
2018-09-19T10:58:21.600Z,93.17
2018-09-19T10:59:21.533Z,92.00
2018-09-19T11:00:21.455Z,91.72
2018-09-19T11:01:21.388Z,92.30
2018-09-19T11:02:21.317Z,92.10
2018-09-19T11:03:21.250Z,92.44
2018-09-19T11:04:21.178Z,91.86
2018-09-19T11:05:21.118Z,91.18
2018-09-19T11:06:21.044Z,91.22
2018-09-19T11:07:20.972Z,90.36
2018-09-19T11:08:20.964Z,90.45
2018-09-19T11:09:20.844Z,91.22
2018-09-19T11:10:20.771Z,91.52
2018-09-19T11:11:20.698Z,92.00
2018-09-19T11:12:20.633Z,90.74
2018-09-19T11:13:20.572Z,92.19
2018-09-19T11:14:20.489Z,91.08
2018-09-19T11:15:20.422Z,91.75
2018-09-19T11:16:20.361Z,91.27
2018-09-19T11:17:20.296Z,90.78
2018-09-19T11:18:20.223Z,91.27
2018-09-19T11:19:20.148Z,88.56
2018-09-19T11:20:20.086Z,89.67
2018-09-19T11:21:20.014Z,91.71
2018-09-19T11:22:19.945Z,90.64
2018-09-19T11:23:19.876Z,88.89
2018-09-19T11:24:19.822Z,86.22
2018-09-19T11:25:19.743Z,84.09
2018-09-19T11:26:19.692Z,86.22
2018-09-19T11:27:19.612Z,83.74
2018-09-19T11:28:26.754Z,82.27
2018-09-19T11:30:23.426Z,77.91
2018-09-19T11:31:23.316Z,72.44
2018-09-19T11:33:27.222Z,61.92
2018-09-19T11:34:27.083Z,62.05
2018-09-19T11:36:30.935Z,59.38
2018-09-19T11:37:30.887Z,59.01
2018-09-19T11:39:23.689Z,58.28
2018-09-19T11:40:23.583Z,56.68
2018-09-19T11:42:27.525Z,52.50
2018-09-19T11:43:27.502Z,51.56
2018-09-19T11:45:31.352Z,49.75
2018-09-19T11:46:31.250Z,47.25
2018-09-19T11:48:35.150Z,45.05
2018-09-19T11:49:35.033Z,45.37
2018-09-19T11:50:34.976Z,44.40
2018-09-19T11:51:34.919Z,41.65
2018-09-19T11:52:34.871Z,41.16
2018-09-19T11:53:34.804Z,41.27
2018-09-19T11:54:34.746Z,41.27
2018-09-19T11:55:34.692Z,42.18
2018-09-19T11:56:34.633Z,41.31
2018-09-19T11:57:34.576Z,42.34
2018-09-19T11:58:34.522Z,38.53
2018-09-19T11:59:34.466Z,38.23
2018-09-19T12:00:34.407Z,34.88
2018-09-19T12:01:34.358Z,36.46
2018-09-19T12:02:34.298Z,36.06
2018-09-19T12:03:34.240Z,36.18
2018-09-19T12:04:34.188Z,36.79
2018-09-19T12:05:34.133Z,38.29
2018-09-19T12:06:34.081Z,34.73
2018-09-19T12:07:34.020Z,33.03
2018-09-19T12:08:33.968Z,32.40
2018-09-19T12:09:33.910Z,33.18
2018-09-19T12:10:33.857Z,34.74
2018-09-19T12:11:33.804Z,36.44
2018-09-19T12:12:33.744Z,35.85
2018-09-19T12:13:33.694Z,36.25
2018-09-19T12:14:33.641Z,35.49
2018-09-19T12:15:33.581Z,35.11
2018-09-19T12:16:33.527Z,35.52
2018-09-19T12:17:33.480Z,35.53
2018-09-19T12:18:33.419Z,34.17
2018-09-19T12:19:33.388Z,33.29
2018-09-19T12:20:33.313Z,34.00
2018-09-19T12:21:33.253Z,32.53
2018-09-19T12:22:33.200Z,33.82
2018-09-19T12:23:33.150Z,32.54
2018-09-19T12:24:33.093Z,32.05
2018-09-19T12:25:33.042Z,30.87
2018-09-19T12:26:33.073Z,31.67
2018-09-19T12:27:32.934Z,32.08
2018-09-19T12:28:32.880Z,31.10
2018-09-19T12:29:32.829Z,30.11
2018-09-19T12:30:32.774Z,30.19
2018-09-19T12:31:32.723Z,30.29
2018-09-19T12:32:32.668Z,31.78
2018-09-19T12:33:32.627Z,32.20
2018-09-19T12:34:32.561Z,29.21
2018-09-19T12:35:32.529Z,30.08
2018-09-19T12:36:32.456Z,29.75
2018-09-19T12:37:32.405Z,30.53
2018-09-19T12:38:32.352Z,29.82
2018-09-19T12:39:32.338Z,29.72
2018-09-19T12:40:32.249Z,30.04
2018-09-19T12:41:32.192Z,30.35
2018-09-19T12:42:32.139Z,31.35
2018-09-19T12:43:32.088Z,31.57
2018-09-19T12:44:32.038Z,30.99
2018-09-19T12:45:31.982Z,31.30
2018-09-19T12:46:31.930Z,30.02
2018-09-19T12:47:31.887Z,30.22
2018-09-19T12:48:31.829Z,28.85
2018-09-19T12:49:31.773Z,29.94
2018-09-19T12:50:31.720Z,29.74
2018-09-19T12:51:31.668Z,30.04
2018-09-19T12:52:31.616Z,28.25
2018-09-19T12:53:31.565Z,27.55
2018-09-19T12:54:31.519Z,27.45
2018-09-19T12:55:31.465Z,29.35
2018-09-19T12:56:31.406Z,29.46
2018-09-19T12:57:31.356Z,29.86
2018-09-19T12:58:31.305Z,30.08
2018-09-19T12:59:31.254Z,28.39
2018-09-19T13:00:31.200Z,27.59
2018-09-19T13:01:31.151Z,27.29
2018-09-19T13:02:31.107Z,26.51
2018-09-19T13:03:31.046Z,26.51
2018-09-19T13:04:30.996Z,25.00